Terminal Aerodrome Forecast
Issued by NWS Louisville, KY

Home | Current Version | Previous Version | Text Only | Print | Product List | Glossary On
Versions: 1 2 3 4 5 6 7 8 9 10 11 12 13 14 15 16 17 18 19 20 21 22 23
925
FTUS43 KLMK 081309 AAA
TAFSDF
TAF AMD
KSDF 081309Z 0813/0918 27008KT P6SM -RA BKN035
      TEMPO 0813/0815 2SM -SN BR BKN015
     FM081700 27012G20KT 5SM -RA BR OVC025
     FM081900 28012G20KT 3SM -SHSN BR OVC018
      TEMPO 0820/0824 2SM -SN BR OVC012
     FM090000 29012KT 5SM -SN BR OVC020
     FM090400 28008KT 6SM BR VCSH OVC022=

USA.gov is the U.S. government's official web portal to all federal, state and local government web resources and services.